sensor_id;sensor_type;location;lat;lon;timestamp;P1;durP1;ratioP1;P2;durP2;ratioP2
7179;SDS011;3631;42.152;24.756;2023-02-11T00:00:23;31.43;;;15.47;;
7179;SDS011;3631;42.152;24.756;2023-02-11T00:06:09;35.33;;;16.53;;
7179;SDS011;3631;42.152;24.756;2023-02-11T00:09:13;37.90;;;17.27;;
7179;SDS011;3631;42.152;24.756;2023-02-11T00:11:51;33.30;;;16.27;;
7179;SDS011;3631;42.152;24.756;2023-02-11T00:15:03;39.83;;;17.90;;
7179;SDS011;3631;42.152;24.756;2023-02-11T00:18:04;45.87;;;19.30;;
7179;SDS011;3631;42.152;24.756;2023-02-11T00:21:04;38.67;;;18.50;;
7179;SDS011;3631;42.152;24.756;2023-02-11T00:24:08;41.40;;;18.37;;
7179;SDS011;3631;42.152;24.756;2023-02-11T00:27:18;39.17;;;18.23;;
7179;SDS011;3631;42.152;24.756;2023-02-11T00:30:28;42.73;;;19.10;;
7179;SDS011;3631;42.152;24.756;2023-02-11T00:33:14;37.50;;;19.20;;
7179;SDS011;3631;42.152;24.756;2023-02-11T00:35:56;43.57;;;20.10;;
7179;SDS011;3631;42.152;24.756;2023-02-11T00:38:57;46.93;;;21.07;;
7179;SDS011;3631;42.152;24.756;2023-02-11T00:42:14;41.73;;;20.13;;
7179;SDS011;3631;42.152;24.756;2023-02-11T00:45:38;41.40;;;19.17;;
7179;SDS011;3631;42.152;24.756;2023-02-11T00:48:26;40.97;;;19.83;;
7179;SDS011;3631;42.152;24.756;2023-02-11T00:51:34;43.20;;;19.50;;
7179;SDS011;3631;42.152;24.756;2023-02-11T00:54:27;36.47;;;18.00;;
7179;SDS011;3631;42.152;24.756;2023-02-11T00:57:34;41.77;;;19.23;;
7179;SDS011;3631;42.152;24.756;2023-02-11T01:00:33;39.30;;;18.90;;
7179;SDS011;3631;42.152;24.756;2023-02-11T01:03:15;39.07;;;18.50;;
7179;SDS011;3631;42.152;24.756;2023-02-11T01:06:12;42.20;;;17.73;;
7179;SDS011;3631;42.152;24.756;2023-02-11T01:09:12;41.20;;;17.87;;
7179;SDS011;3631;42.152;24.756;2023-02-11T01:12:06;36.77;;;18.50;;
7179;SDS011;3631;42.152;24.756;2023-02-11T01:15:14;44.07;;;18.23;;
7179;SDS011;3631;42.152;24.756;2023-02-11T01:18:19;41.33;;;18.60;;
7179;SDS011;3631;42.152;24.756;2023-02-11T01:21:29;46.60;;;19.47;;
7179;SDS011;3631;42.152;24.756;2023-02-11T01:24:26;47.33;;;19.73;;
7179;SDS011;3631;42.152;24.756;2023-02-11T01:30:38;44.13;;;20.80;;
7179;SDS011;3631;42.152;24.756;2023-02-11T01:33:33;44.47;;;19.37;;
7179;SDS011;3631;42.152;24.756;2023-02-11T01:36:31;41.83;;;20.97;;
7179;SDS011;3631;42.152;24.756;2023-02-11T01:39:17;43.17;;;20.33;;
7179;SDS011;3631;42.152;24.756;2023-02-11T01:42:31;47.53;;;20.83;;
7179;SDS011;3631;42.152;24.756;2023-02-11T01:49:11;39.63;;;17.90;;
7179;SDS011;3631;42.152;24.756;2023-02-11T01:52:28;38.80;;;18.13;;
7179;SDS011;3631;42.152;24.756;2023-02-11T01:55:22;41.67;;;18.37;;
7179;SDS011;3631;42.152;24.756;2023-02-11T01:58:26;37.83;;;18.80;;
7179;SDS011;3631;42.152;24.756;2023-02-11T02:01:23;41.60;;;17.70;;
7179;SDS011;3631;42.152;24.756;2023-02-11T02:04:17;38.37;;;18.97;;
7179;SDS011;3631;42.152;24.756;2023-02-11T02:07:28;38.67;;;17.97;;
7179;SDS011;3631;42.152;24.756;2023-02-11T02:10:16;37.87;;;17.47;;
7179;SDS011;3631;42.152;24.756;2023-02-11T02:13:28;38.27;;;17.50;;
7179;SDS011;3631;42.152;24.756;2023-02-11T02:16:45;36.03;;;18.03;;
7179;SDS011;3631;42.152;24.756;2023-02-11T02:20:01;36.70;;;17.40;;
7179;SDS011;3631;42.152;24.756;2023-02-11T02:23:20;34.57;;;16.87;;
7179;SDS011;3631;42.152;24.756;2023-02-11T02:27:06;34.03;;;17.37;;
7179;SDS011;3631;42.152;24.756;2023-02-11T02:30:06;34.03;;;16.70;;
7179;SDS011;3631;42.152;24.756;2023-02-11T02:36:42;35.47;;;17.57;;
7179;SDS011;3631;42.152;24.756;2023-02-11T02:40:01;32.77;;;16.67;;
7179;SDS011;3631;42.152;24.756;2023-02-11T02:43:08;36.20;;;17.47;;
7179;SDS011;3631;42.152;24.756;2023-02-11T02:49:21;38.07;;;17.73;;
7179;SDS011;3631;42.152;24.756;2023-02-11T02:52:24;37.03;;;18.43;;
7179;SDS011;3631;42.152;24.756;2023-02-11T02:55:35;36.37;;;17.17;;
7179;SDS011;3631;42.152;24.756;2023-02-11T02:58:50;39.13;;;18.47;;
7179;SDS011;3631;42.152;24.756;2023-02-11T03:02:20;39.47;;;16.90;;
7179;SDS011;3631;42.152;24.756;2023-02-11T03:11:53;35.90;;;17.27;;
7179;SDS011;3631;42.152;24.756;2023-02-11T03:15:06;36.43;;;18.10;;
7179;SDS011;3631;42.152;24.756;2023-02-11T03:18:11;43.40;;;19.87;;
7179;SDS011;3631;42.152;24.756;2023-02-11T03:21:36;57.77;;;26.33;;
7179;SDS011;3631;42.152;24.756;2023-02-11T03:34:29;60.37;;;26.60;;
7179;SDS011;3631;42.152;24.756;2023-02-11T03:37:54;51.70;;;25.03;;
7179;SDS011;3631;42.152;24.756;2023-02-11T03:40:54;57.27;;;24.53;;
7179;SDS011;3631;42.152;24.756;2023-02-11T03:43:57;50.63;;;22.57;;
7179;SDS011;3631;42.152;24.756;2023-02-11T03:53:33;43.30;;;21.27;;
7179;SDS011;3631;42.152;24.756;2023-02-11T03:56:44;39.70;;;18.30;;
7179;SDS011;3631;42.152;24.756;2023-02-11T04:02:54;46.00;;;20.60;;
7179;SDS011;3631;42.152;24.756;2023-02-11T04:06:04;44.60;;;20.80;;
7179;SDS011;3631;42.152;24.756;2023-02-11T04:09:13;40.40;;;19.03;;
7179;SDS011;3631;42.152;24.756;2023-02-11T04:12:21;42.03;;;21.00;;
7179;SDS011;3631;42.152;24.756;2023-02-11T04:15:14;46.50;;;21.27;;
7179;SDS011;3631;42.152;24.756;2023-02-11T04:21:33;46.23;;;19.63;;
7179;SDS011;3631;42.152;24.756;2023-02-11T04:24:26;42.53;;;20.73;;
7179;SDS011;3631;42.152;24.756;2023-02-11T04:27:23;43.60;;;20.27;;
7179;SDS011;3631;42.152;24.756;2023-02-11T04:30:18;47.53;;;20.47;;
7179;SDS011;3631;42.152;24.756;2023-02-11T04:33:10;42.40;;;19.83;;
7179;SDS011;3631;42.152;24.756;2023-02-11T04:36:04;41.90;;;18.90;;
7179;SDS011;3631;42.152;24.756;2023-02-11T04:39:17;42.83;;;19.73;;
7179;SDS011;3631;42.152;24.756;2023-02-11T04:42:14;40.03;;;18.57;;
7179;SDS011;3631;42.152;24.756;2023-02-11T04:45:20;45.27;;;19.20;;
7179;SDS011;3631;42.152;24.756;2023-02-11T04:48:25;39.27;;;17.30;;
7179;SDS011;3631;42.152;24.756;2023-02-11T04:51:33;35.27;;;17.93;;
7179;SDS011;3631;42.152;24.756;2023-02-11T04:54:33;35.83;;;18.13;;
7179;SDS011;3631;42.152;24.756;2023-02-11T04:57:33;36.30;;;18.50;;
7179;SDS011;3631;42.152;24.756;2023-02-11T05:00:20;39.67;;;18.77;;
7179;SDS011;3631;42.152;24.756;2023-02-11T05:03:16;42.53;;;19.63;;
7179;SDS011;3631;42.152;24.756;2023-02-11T05:06:09;47.53;;;19.67;;
7179;SDS011;3631;42.152;24.756;2023-02-11T05:08:56;43.57;;;19.90;;
7179;SDS011;3631;42.152;24.756;2023-02-11T05:12:02;45.53;;;21.70;;
7179;SDS011;3631;42.152;24.756;2023-02-11T05:14:44;42.30;;;20.77;;
7179;SDS011;3631;42.152;24.756;2023-02-11T05:17:48;38.93;;;19.13;;
7179;SDS011;3631;42.152;24.756;2023-02-11T05:20:55;42.90;;;18.93;;
7179;SDS011;3631;42.152;24.756;2023-02-11T05:30:42;36.30;;;17.83;;
7179;SDS011;3631;42.152;24.756;2023-02-11T05:33:42;43.57;;;18.73;;
7179;SDS011;3631;42.152;24.756;2023-02-11T05:36:12;42.93;;;19.00;;
7179;SDS011;3631;42.152;24.756;2023-02-11T05:38:45;43.43;;;19.17;;
7179;SDS011;3631;42.152;24.756;2023-02-11T05:41:17;41.93;;;19.33;;
7179;SDS011;3631;42.152;24.756;2023-02-11T05:43:52;40.53;;;20.60;;
7179;SDS011;3631;42.152;24.756;2023-02-11T05:46:36;47.23;;;20.37;;
7179;SDS011;3631;42.152;24.756;2023-02-11T05:49:26;46.10;;;21.33;;
7179;SDS011;3631;42.152;24.756;2023-02-11T05:52:05;43.67;;;18.97;;
7179;SDS011;3631;42.152;24.756;2023-02-11T05:54:37;39.20;;;20.07;;
7179;SDS011;3631;42.152;24.756;2023-02-11T05:57:06;42.80;;;20.33;;
7179;SDS011;3631;42.152;24.756;2023-02-11T05:59:38;42.03;;;21.37;;
7179;SDS011;3631;42.152;24.756;2023-02-11T06:02:22;41.70;;;19.07;;
7179;SDS011;3631;42.152;24.756;2023-02-11T06:05:11;35.03;;;17.87;;
7179;SDS011;3631;42.152;24.756;2023-02-11T06:07:52;38.37;;;18.07;;
7179;SDS011;3631;42.152;24.756;2023-02-11T06:10:49;39.37;;;18.43;;
7179;SDS011;3631;42.152;24.756;2023-02-11T06:13:40;38.57;;;17.97;;
7179;SDS011;3631;42.152;24.756;2023-02-11T06:16:43;35.70;;;17.47;;
7179;SDS011;3631;42.152;24.756;2023-02-11T06:23:02;33.47;;;16.83;;
7179;SDS011;3631;42.152;24.756;2023-02-11T06:26:09;31.40;;;16.70;;
7179;SDS011;3631;42.152;24.756;2023-02-11T06:29:26;33.23;;;17.60;;
7179;SDS011;3631;42.152;24.756;2023-02-11T06:32:01;31.87;;;17.50;;
7179;SDS011;3631;42.152;24.756;2023-02-11T06:34:45;31.77;;;17.47;;
7179;SDS011;3631;42.152;24.756;2023-02-11T06:37:31;31.30;;;18.60;;
7179;SDS011;3631;42.152;24.756;2023-02-11T06:40:09;35.20;;;18.60;;
7179;SDS011;3631;42.152;24.756;2023-02-11T06:43:04;38.77;;;21.57;;
7179;SDS011;3631;42.152;24.756;2023-02-11T06:45:58;36.47;;;20.67;;
7179;SDS011;3631;42.152;24.756;2023-02-11T06:48:46;35.93;;;19.47;;
7179;SDS011;3631;42.152;24.756;2023-02-11T06:51:49;38.67;;;20.53;;
7179;SDS011;3631;42.152;24.756;2023-02-11T07:01:15;33.30;;;19.40;;
7179;SDS011;3631;42.152;24.756;2023-02-11T07:03:59;36.20;;;18.57;;
7179;SDS011;3631;42.152;24.756;2023-02-11T07:06:56;32.07;;;17.37;;
7179;SDS011;3631;42.152;24.756;2023-02-11T07:09:32;29.73;;;17.07;;
7179;SDS011;3631;42.152;24.756;2023-02-11T07:12:22;27.70;;;15.13;;
7179;SDS011;3631;42.152;24.756;2023-02-11T07:14:59;30.73;;;16.10;;
7179;SDS011;3631;42.152;24.756;2023-02-11T07:17:37;29.23;;;15.63;;
7179;SDS011;3631;42.152;24.756;2023-02-11T07:20:40;28.83;;;15.57;;
7179;SDS011;3631;42.152;24.756;2023-02-11T07:23:32;23.97;;;14.27;;
7179;SDS011;3631;42.152;24.756;2023-02-11T07:26:20;27.80;;;14.13;;
7179;SDS011;3631;42.152;24.756;2023-02-11T07:29:14;27.10;;;14.33;;
7179;SDS011;3631;42.152;24.756;2023-02-11T07:32:02;39.13;;;14.57;;
7179;SDS011;3631;42.152;24.756;2023-02-11T07:34:33;27.80;;;14.80;;
7179;SDS011;3631;42.152;24.756;2023-02-11T07:37:32;26.40;;;14.50;;
7179;SDS011;3631;42.152;24.756;2023-02-11T07:40:15;28.37;;;14.73;;
7179;SDS011;3631;42.152;24.756;2023-02-11T07:43:04;29.77;;;14.93;;
7179;SDS011;3631;42.152;24.756;2023-02-11T07:46:05;24.17;;;13.03;;
7179;SDS011;3631;42.152;24.756;2023-02-11T07:52:05;26.63;;;14.20;;
7179;SDS011;3631;42.152;24.756;2023-02-11T07:54:55;28.20;;;13.90;;
7179;SDS011;3631;42.152;24.756;2023-02-11T07:57:47;23.47;;;13.50;;
7179;SDS011;3631;42.152;24.756;2023-02-11T08:00:38;27.23;;;14.00;;
7179;SDS011;3631;42.152;24.756;2023-02-11T08:03:29;24.03;;;14.00;;
7179;SDS011;3631;42.152;24.756;2023-02-11T08:06:47;26.07;;;14.23;;
7179;SDS011;3631;42.152;24.756;2023-02-11T08:09:41;25.63;;;13.93;;
7179;SDS011;3631;42.152;24.756;2023-02-11T08:12:42;33.90;;;15.67;;
7179;SDS011;3631;42.152;24.756;2023-02-11T08:15:14;25.27;;;14.67;;
7179;SDS011;3631;42.152;24.756;2023-02-11T08:18:00;25.80;;;14.53;;
7179;SDS011;3631;42.152;24.756;2023-02-11T08:21:05;30.53;;;15.57;;
7179;SDS011;3631;42.152;24.756;2023-02-11T08:24:12;24.80;;;14.43;;
7179;SDS011;3631;42.152;24.756;2023-02-11T08:27:00;30.63;;;15.90;;
7179;SDS011;3631;42.152;24.756;2023-02-11T08:29:42;29.70;;;16.37;;
7179;SDS011;3631;42.152;24.756;2023-02-11T08:32:23;33.33;;;16.50;;
7179;SDS011;3631;42.152;24.756;2023-02-11T08:35:19;29.43;;;16.37;;
7179;SDS011;3631;42.152;24.756;2023-02-11T08:38:16;26.93;;;15.30;;
7179;SDS011;3631;42.152;24.756;2023-02-11T08:41:13;30.63;;;16.13;;
7179;SDS011;3631;42.152;24.756;2023-02-11T08:44:06;30.57;;;16.43;;
7179;SDS011;3631;42.152;24.756;2023-02-11T08:47:07;29.53;;;16.87;;
7179;SDS011;3631;42.152;24.756;2023-02-11T08:50:03;31.00;;;18.30;;
7179;SDS011;3631;42.152;24.756;2023-02-11T08:53:04;34.63;;;17.07;;
7179;SDS011;3631;42.152;24.756;2023-02-11T08:56:08;35.23;;;16.60;;
7179;SDS011;3631;42.152;24.756;2023-02-11T08:59:17;31.43;;;16.47;;
7179;SDS011;3631;42.152;24.756;2023-02-11T09:02:17;28.63;;;16.03;;
7179;SDS011;3631;42.152;24.756;2023-02-11T09:05:06;33.87;;;15.70;;
7179;SDS011;3631;42.152;24.756;2023-02-11T09:08:04;24.63;;;15.30;;
7179;SDS011;3631;42.152;24.756;2023-02-11T09:11:06;26.73;;;15.87;;
7179;SDS011;3631;42.152;24.756;2023-02-11T09:17:38;25.53;;;15.70;;
7179;SDS011;3631;42.152;24.756;2023-02-11T09:20:39;24.50;;;13.97;;
7179;SDS011;3631;42.152;24.756;2023-02-11T09:23:43;24.50;;;13.20;;
7179;SDS011;3631;42.152;24.756;2023-02-11T09:26:41;25.00;;;14.07;;
7179;SDS011;3631;42.152;24.756;2023-02-11T09:30:05;24.43;;;14.50;;
7179;SDS011;3631;42.152;24.756;2023-02-11T09:33:15;27.00;;;14.80;;
7179;SDS011;3631;42.152;24.756;2023-02-11T09:36:19;29.17;;;15.37;;
7179;SDS011;3631;42.152;24.756;2023-02-11T09:39:15;27.10;;;15.93;;
7179;SDS011;3631;42.152;24.756;2023-02-11T09:45:58;23.93;;;15.43;;
7179;SDS011;3631;42.152;24.756;2023-02-11T09:49:02;24.50;;;14.90;;
7179;SDS011;3631;42.152;24.756;2023-02-11T09:52:26;24.87;;;15.07;;
7179;SDS011;3631;42.152;24.756;2023-02-11T09:55:38;24.83;;;15.23;;
7179;SDS011;3631;42.152;24.756;2023-02-11T09:58:33;29.60;;;16.20;;
7179;SDS011;3631;42.152;24.756;2023-02-11T10:01:52;30.10;;;15.00;;
7179;SDS011;3631;42.152;24.756;2023-02-11T10:08:26;27.47;;;15.20;;
7179;SDS011;3631;42.152;24.756;2023-02-11T10:11:46;25.97;;;15.47;;
7179;SDS011;3631;42.152;24.756;2023-02-11T10:15:12;30.03;;;16.33;;
7179;SDS011;3631;42.152;24.756;2023-02-11T10:18:21;27.63;;;15.07;;
7179;SDS011;3631;42.152;24.756;2023-02-11T10:21:19;24.70;;;15.20;;
7179;SDS011;3631;42.152;24.756;2023-02-11T10:24:08;26.60;;;15.07;;
7179;SDS011;3631;42.152;24.756;2023-02-11T10:26:55;27.23;;;15.83;;
7179;SDS011;3631;42.152;24.756;2023-02-11T10:29:59;24.20;;;14.07;;
7179;SDS011;3631;42.152;24.756;2023-02-11T10:33:17;21.67;;;12.43;;
7179;SDS011;3631;42.152;24.756;2023-02-11T10:36:11;19.67;;;12.47;;
7179;SDS011;3631;42.152;24.756;2023-02-11T10:42:33;20.87;;;12.90;;
7179;SDS011;3631;42.152;24.756;2023-02-11T10:45:39;19.20;;;12.47;;
7179;SDS011;3631;42.152;24.756;2023-02-11T10:48:50;21.50;;;13.17;;
7179;SDS011;3631;42.152;24.756;2023-02-11T10:51:37;24.80;;;13.20;;
7179;SDS011;3631;42.152;24.756;2023-02-11T10:54:16;20.77;;;12.97;;
7179;SDS011;3631;42.152;24.756;2023-02-11T10:56:57;19.73;;;12.57;;
7179;SDS011;3631;42.152;24.756;2023-02-11T10:59:32;24.40;;;12.60;;
7179;SDS011;3631;42.152;24.756;2023-02-11T11:02:25;25.70;;;12.80;;
7179;SDS011;3631;42.152;24.756;2023-02-11T11:05:19;20.53;;;12.17;;
7179;SDS011;3631;42.152;24.756;2023-02-11T11:08:17;19.03;;;11.93;;
7179;SDS011;3631;42.152;24.756;2023-02-11T11:11:08;25.23;;;12.67;;
7179;SDS011;3631;42.152;24.756;2023-02-11T11:13:58;21.47;;;13.43;;
7179;SDS011;3631;42.152;24.756;2023-02-11T11:17:18;20.90;;;12.37;;
7179;SDS011;3631;42.152;24.756;2023-02-11T11:20:19;18.80;;;12.00;;
7179;SDS011;3631;42.152;24.756;2023-02-11T11:23:08;19.43;;;12.33;;
7179;SDS011;3631;42.152;24.756;2023-02-11T11:26:04;21.43;;;12.67;;
7179;SDS011;3631;42.152;24.756;2023-02-11T11:28:56;21.13;;;12.10;;
7179;SDS011;3631;42.152;24.756;2023-02-11T11:31:45;19.20;;;11.77;;
7179;SDS011;3631;42.152;24.756;2023-02-11T11:34:31;20.57;;;12.40;;
7179;SDS011;3631;42.152;24.756;2023-02-11T11:37:41;17.97;;;11.70;;
7179;SDS011;3631;42.152;24.756;2023-02-11T11:51:16;16.20;;;10.90;;
7179;SDS011;3631;42.152;24.756;2023-02-11T11:54:10;17.90;;;11.43;;
7179;SDS011;3631;42.152;24.756;2023-02-11T11:56:42;20.07;;;11.03;;
7179;SDS011;3631;42.152;24.756;2023-02-11T11:59:39;18.63;;;10.93;;
7179;SDS011;3631;42.152;24.756;2023-02-11T12:05:45;18.07;;;11.53;;
7179;SDS011;3631;42.152;24.756;2023-02-11T12:08:49;20.27;;;12.40;;
7179;SDS011;3631;42.152;24.756;2023-02-11T12:11:48;18.77;;;11.40;;
7179;SDS011;3631;42.152;24.756;2023-02-11T12:15:03;16.10;;;10.17;;
7179;SDS011;3631;42.152;24.756;2023-02-11T12:18:16;18.40;;;10.80;;
7179;SDS011;3631;42.152;24.756;2023-02-11T12:21:27;13.27;;;9.53;;
7179;SDS011;3631;42.152;24.756;2023-02-11T12:28:04;13.80;;;9.60;;
7179;SDS011;3631;42.152;24.756;2023-02-11T12:31:01;18.27;;;10.50;;
7179;SDS011;3631;42.152;24.756;2023-02-11T12:37:16;11.67;;;8.90;;
7179;SDS011;3631;42.152;24.756;2023-02-11T12:40:24;14.60;;;9.47;;
7179;SDS011;3631;42.152;24.756;2023-02-11T12:47:05;19.43;;;11.40;;
7179;SDS011;3631;42.152;24.756;2023-02-11T12:50:12;14.33;;;10.37;;
7179;SDS011;3631;42.152;24.756;2023-02-11T12:53:31;17.23;;;10.20;;
7179;SDS011;3631;42.152;24.756;2023-02-11T12:56:35;16.77;;;10.37;;
7179;SDS011;3631;42.152;24.756;2023-02-11T12:59:39;16.03;;;10.93;;
7179;SDS011;3631;42.152;24.756;2023-02-11T13:02:45;18.20;;;11.27;;
7179;SDS011;3631;42.152;24.756;2023-02-11T13:05:53;12.50;;;9.53;;
7179;SDS011;3631;42.152;24.756;2023-02-11T13:08:52;12.80;;;8.40;;
7179;SDS011;3631;42.152;24.756;2023-02-11T13:12:01;11.73;;;8.50;;
7179;SDS011;3631;42.152;24.756;2023-02-11T13:15:05;11.70;;;8.10;;
7179;SDS011;3631;42.152;24.756;2023-02-11T13:18:08;11.93;;;8.10;;
7179;SDS011;3631;42.152;24.756;2023-02-11T13:21:55;16.37;;;8.37;;
7179;SDS011;3631;42.152;24.756;2023-02-11T13:24:42;10.73;;;8.30;;
7179;SDS011;3631;42.152;24.756;2023-02-11T13:27:44;14.30;;;9.37;;
7179;SDS011;3631;42.152;24.756;2023-02-11T13:30:52;13.63;;;9.17;;
7179;SDS011;3631;42.152;24.756;2023-02-11T13:33:52;13.80;;;9.83;;
7179;SDS011;3631;42.152;24.756;2023-02-11T13:36:35;15.93;;;9.40;;
7179;SDS011;3631;42.152;24.756;2023-02-11T13:42:56;15.80;;;9.90;;
7179;SDS011;3631;42.152;24.756;2023-02-11T13:46:07;15.20;;;9.67;;
7179;SDS011;3631;42.152;24.756;2023-02-11T13:49:14;16.13;;;10.13;;
7179;SDS011;3631;42.152;24.756;2023-02-11T13:52:19;15.43;;;9.27;;
7179;SDS011;3631;42.152;24.756;2023-02-11T13:55:13;13.40;;;9.67;;
7179;SDS011;3631;42.152;24.756;2023-02-11T14:01:22;12.67;;;10.23;;
7179;SDS011;3631;42.152;24.756;2023-02-11T14:04:48;19.13;;;11.40;;
7179;SDS011;3631;42.152;24.756;2023-02-11T14:08:23;20.73;;;11.80;;
7179;SDS011;3631;42.152;24.756;2023-02-11T14:14:32;17.23;;;10.47;;
7179;SDS011;3631;42.152;24.756;2023-02-11T14:17:31;13.57;;;9.23;;
7179;SDS011;3631;42.152;24.756;2023-02-11T14:20:29;17.93;;;10.30;;
7179;SDS011;3631;42.152;24.756;2023-02-11T14:23:22;16.63;;;10.47;;
7179;SDS011;3631;42.152;24.756;2023-02-11T14:26:01;14.07;;;9.90;;
7179;SDS011;3631;42.152;24.756;2023-02-11T14:29:00;17.43;;;11.17;;
7179;SDS011;3631;42.152;24.756;2023-02-11T14:31:50;17.00;;;10.40;;
7179;SDS011;3631;42.152;24.756;2023-02-11T14:34:45;18.67;;;10.63;;
7179;SDS011;3631;42.152;24.756;2023-02-11T14:37:40;16.80;;;11.27;;
7179;SDS011;3631;42.152;24.756;2023-02-11T14:40:24;21.43;;;13.50;;
7179;SDS011;3631;42.152;24.756;2023-02-11T14:43:02;26.37;;;14.33;;
7179;SDS011;3631;42.152;24.756;2023-02-11T14:45:44;20.77;;;12.53;;
7179;SDS011;3631;42.152;24.756;2023-02-11T14:48:31;27.97;;;13.77;;
7179;SDS011;3631;42.152;24.756;2023-02-11T14:51:15;25.10;;;12.73;;
7179;SDS011;3631;42.152;24.756;2023-02-11T14:53:53;21.07;;;12.10;;
7179;SDS011;3631;42.152;24.756;2023-02-11T14:56:48;29.43;;;12.60;;
7179;SDS011;3631;42.152;24.756;2023-02-11T14:59:59;21.87;;;11.60;;
7179;SDS011;3631;42.152;24.756;2023-02-11T15:02:47;20.13;;;12.47;;
7179;SDS011;3631;42.152;24.756;2023-02-11T15:05:41;15.70;;;10.60;;
7179;SDS011;3631;42.152;24.756;2023-02-11T15:11:52;25.20;;;12.23;;
7179;SDS011;3631;42.152;24.756;2023-02-11T15:14:49;27.70;;;15.03;;
7179;SDS011;3631;42.152;24.756;2023-02-11T15:17:42;33.70;;;17.23;;
7179;SDS011;3631;42.152;24.756;2023-02-11T15:20:19;31.63;;;17.70;;
7179;SDS011;3631;42.152;24.756;2023-02-11T15:23:03;29.07;;;16.87;;
7179;SDS011;3631;42.152;24.756;2023-02-11T15:25:57;33.30;;;16.40;;
7179;SDS011;3631;42.152;24.756;2023-02-11T15:28:30;33.63;;;19.20;;
7179;SDS011;3631;42.152;24.756;2023-02-11T15:31:13;40.70;;;20.93;;
7179;SDS011;3631;42.152;24.756;2023-02-11T15:33:50;37.97;;;22.00;;
7179;SDS011;3631;42.152;24.756;2023-02-11T15:36:27;40.00;;;20.40;;
7179;SDS011;3631;42.152;24.756;2023-02-11T15:39:18;31.50;;;17.83;;
7179;SDS011;3631;42.152;24.756;2023-02-11T15:47:58;32.77;;;17.53;;
7179;SDS011;3631;42.152;24.756;2023-02-11T15:50:35;44.03;;;21.80;;
7179;SDS011;3631;42.152;24.756;2023-02-11T15:53:21;49.37;;;23.87;;
7179;SDS011;3631;42.152;24.756;2023-02-11T15:56:03;42.33;;;22.07;;
7179;SDS011;3631;42.152;24.756;2023-02-11T15:59:10;35.57;;;20.17;;
7179;SDS011;3631;42.152;24.756;2023-02-11T16:01:45;38.57;;;20.00;;
7179;SDS011;3631;42.152;24.756;2023-02-11T16:04:21;40.87;;;21.13;;
7179;SDS011;3631;42.152;24.756;2023-02-11T16:07:04;47.53;;;24.07;;
7179;SDS011;3631;42.152;24.756;2023-02-11T16:09:35;60.87;;;30.90;;
7179;SDS011;3631;42.152;24.756;2023-02-11T16:12:22;64.77;;;32.20;;
7179;SDS011;3631;42.152;24.756;2023-02-11T16:18:27;76.10;;;34.93;;
7179;SDS011;3631;42.152;24.756;2023-02-11T16:21:15;88.40;;;39.37;;
7179;SDS011;3631;42.152;24.756;2023-02-11T16:24:31;88.43;;;41.77;;
7179;SDS011;3631;42.152;24.756;2023-02-11T16:27:28;79.30;;;39.37;;
7179;SDS011;3631;42.152;24.756;2023-02-11T16:30:32;87.93;;;41.00;;
7179;SDS011;3631;42.152;24.756;2023-02-11T16:33:32;99.77;;;44.70;;
7179;SDS011;3631;42.152;24.756;2023-02-11T16:36:08;99.03;;;47.63;;
7179;SDS011;3631;42.152;24.756;2023-02-11T16:39:00;110.90;;;50.73;;
7179;SDS011;3631;42.152;24.756;2023-02-11T16:41:52;128.47;;;57.53;;
7179;SDS011;3631;42.152;24.756;2023-02-11T16:44:59;155.23;;;67.73;;
7179;SDS011;3631;42.152;24.756;2023-02-11T16:48:00;184.53;;;82.27;;
7179;SDS011;3631;42.152;24.756;2023-02-11T16:51:07;181.50;;;84.47;;
7179;SDS011;3631;42.152;24.756;2023-02-11T16:54:01;136.43;;;62.50;;
7179;SDS011;3631;42.152;24.756;2023-02-11T16:56:40;137.93;;;62.43;;
7179;SDS011;3631;42.152;24.756;2023-02-11T16:59:31;123.57;;;55.43;;
7179;SDS011;3631;42.152;24.756;2023-02-11T17:02:41;136.17;;;58.63;;
7179;SDS011;3631;42.152;24.756;2023-02-11T17:05:33;131.23;;;57.97;;
7179;SDS011;3631;42.152;24.756;2023-02-11T17:08:05;123.97;;;57.67;;
7179;SDS011;3631;42.152;24.756;2023-02-11T17:10:44;128.73;;;58.27;;
7179;SDS011;3631;42.152;24.756;2023-02-11T17:13:25;139.37;;;59.00;;
7179;SDS011;3631;42.152;24.756;2023-02-11T17:16:12;118.97;;;54.63;;
7179;SDS011;3631;42.152;24.756;2023-02-11T17:19:00;113.37;;;52.77;;
7179;SDS011;3631;42.152;24.756;2023-02-11T17:21:45;111.53;;;50.50;;
7179;SDS011;3631;42.152;24.756;2023-02-11T17:25:09;113.80;;;50.13;;
7179;SDS011;3631;42.152;24.756;2023-02-11T17:28:08;124.00;;;53.10;;
7179;SDS011;3631;42.152;24.756;2023-02-11T17:30:59;178.47;;;73.70;;
7179;SDS011;3631;42.152;24.756;2023-02-11T17:33:37;149.27;;;62.33;;
7179;SDS011;3631;42.152;24.756;2023-02-11T17:36:12;137.47;;;56.33;;
7179;SDS011;3631;42.152;24.756;2023-02-11T17:38:50;120.33;;;51.83;;
7179;SDS011;3631;42.152;24.756;2023-02-11T17:41:41;111.00;;;45.87;;
7179;SDS011;3631;42.152;24.756;2023-02-11T17:44:30;121.27;;;49.13;;
7179;SDS011;3631;42.152;24.756;2023-02-11T17:47:06;110.40;;;48.27;;
7179;SDS011;3631;42.152;24.756;2023-02-11T17:49:38;113.20;;;46.80;;
7179;SDS011;3631;42.152;24.756;2023-02-11T17:52:11;110.93;;;48.20;;
7179;SDS011;3631;42.152;24.756;2023-02-11T17:54:44;113.10;;;50.77;;
7179;SDS011;3631;42.152;24.756;2023-02-11T17:57:14;94.37;;;44.60;;
7179;SDS011;3631;42.152;24.756;2023-02-11T17:59:49;87.23;;;43.73;;
7179;SDS011;3631;42.152;24.756;2023-02-11T18:02:32;103.10;;;44.67;;
7179;SDS011;3631;42.152;24.756;2023-02-11T18:05:27;90.67;;;43.97;;
7179;SDS011;3631;42.152;24.756;2023-02-11T18:08:23;96.90;;;43.23;;
7179;SDS011;3631;42.152;24.756;2023-02-11T18:11:30;90.33;;;42.47;;
7179;SDS011;3631;42.152;24.756;2023-02-11T18:14:18;103.77;;;45.27;;
7179;SDS011;3631;42.152;24.756;2023-02-11T18:17:12;105.53;;;48.43;;
7179;SDS011;3631;42.152;24.756;2023-02-11T18:20:14;114.80;;;51.00;;
7179;SDS011;3631;42.152;24.756;2023-02-11T18:23:10;122.67;;;54.10;;
7179;SDS011;3631;42.152;24.756;2023-02-11T18:25:48;130.00;;;57.63;;
7179;SDS011;3631;42.152;24.756;2023-02-11T18:28:33;137.27;;;60.73;;
7179;SDS011;3631;42.152;24.756;2023-02-11T18:31:39;115.53;;;53.10;;
7179;SDS011;3631;42.152;24.756;2023-02-11T18:34:32;124.07;;;52.77;;
7179;SDS011;3631;42.152;24.756;2023-02-11T18:37:22;115.80;;;51.50;;
7179;SDS011;3631;42.152;24.756;2023-02-11T18:39:52;115.50;;;51.33;;
7179;SDS011;3631;42.152;24.756;2023-02-11T18:42:24;114.33;;;50.27;;
7179;SDS011;3631;42.152;24.756;2023-02-11T18:44:56;123.43;;;52.60;;
7179;SDS011;3631;42.152;24.756;2023-02-11T18:47:38;120.97;;;49.70;;
7179;SDS011;3631;42.152;24.756;2023-02-11T18:50:10;98.33;;;45.50;;
7179;SDS011;3631;42.152;24.756;2023-02-11T18:53:01;93.23;;;42.23;;
7179;SDS011;3631;42.152;24.756;2023-02-11T18:55:53;97.27;;;42.37;;
7179;SDS011;3631;42.152;24.756;2023-02-11T18:58:42;87.90;;;39.77;;
7179;SDS011;3631;42.152;24.756;2023-02-11T19:02:03;83.53;;;38.00;;
7179;SDS011;3631;42.152;24.756;2023-02-11T19:05:01;80.07;;;36.50;;
7179;SDS011;3631;42.152;24.756;2023-02-11T19:07:48;78.07;;;35.20;;
7179;SDS011;3631;42.152;24.756;2023-02-11T19:10:43;75.33;;;34.40;;
7179;SDS011;3631;42.152;24.756;2023-02-11T19:13:18;67.40;;;32.33;;
7179;SDS011;3631;42.152;24.756;2023-02-11T19:15:47;67.03;;;32.07;;
7179;SDS011;3631;42.152;24.756;2023-02-11T19:18:22;62.13;;;32.00;;
7179;SDS011;3631;42.152;24.756;2023-02-11T19:21:04;76.70;;;32.33;;
7179;SDS011;3631;42.152;24.756;2023-02-11T19:23:42;69.83;;;31.20;;
7179;SDS011;3631;42.152;24.756;2023-02-11T19:26:29;64.70;;;28.00;;